Time;durP1;ratioP1;P1;durP2;ratioP2;P2;SDS_P1;SDS_P2;PMS_P1;PMS_P2;Temp;Humidity;BMP_temperature;BMP_pressure;BME280_temperature;BME280_humidity;BME280_pressure;Samples;Min_cycle;Max_cycle;Signal;HPM_P1;HPM_P2
2022/06/07 00:00:38;;;;;;;10.50;9.50;;;;;;;20.49;100.00;99348.97;5112844;28;20263;-70
2022/06/07 00:03:05;;;;;;;10.23;9.30;;;;;;;20.59;100.00;99350.00;5112947;28;20198;-70
2022/06/07 00:05:32;;;;;;;10.68;8.88;;;;;;;20.58;100.00;99349.16;5113045;28;20262;-59
2022/06/07 00:07:59;;;;;;;10.10;9.18;;;;;;;20.50;100.00;99340.13;5112674;28;20658;-60
2022/06/07 00:10:26;;;;;;;10.23;9.50;;;;;;;20.53;100.00;99355.72;5112428;28;20187;-68
2022/06/07 00:12:55;;;;;;;9.52;8.68;;;;;;;20.55;100.00;99359.06;5112611;28;20194;-69
2022/06/07 00:15:22;;;;;;;11.77;10.27;;;;;;;20.52;100.00;99357.53;5112240;28;20237;-58
2022/06/07 00:17:49;;;;;;;11.02;9.93;;;;;;;20.50;100.00;99353.31;5111533;28;20198;-67
2022/06/07 00:20:16;;;;;;;10.52;9.50;;;;;;;20.54;100.00;99354.78;5112132;28;20281;-67
2022/06/07 00:22:43;;;;;;;9.55;8.70;;;;;;;20.39;100.00;99342.69;5112249;28;20197;-69
2022/06/07 00:25:12;;;;;;;9.57;8.55;;;;;;;20.28;100.00;99343.44;5112073;28;20210;-69
2022/06/07 00:27:40;;;;;;;10.20;9.25;;;;;;;20.39;100.00;99354.06;5112224;28;20289;-68
2022/06/07 00:30:11;;;;;;;10.02;8.80;;;;;;;20.33;100.00;99343.91;5112444;28;20282;-59
2022/06/07 00:32:39;;;;;;;10.20;8.55;;;;;;;20.42;100.00;99343.31;5112342;28;20198;-60
2022/06/07 00:35:07;;;;;;;9.68;8.73;;;;;;;20.35;100.00;99328.00;5112151;28;20205;-60
2022/06/07 00:37:34;;;;;;;11.98;10.35;;;;;;;20.39;100.00;99338.25;5112470;28;20272;-70
2022/06/07 00:40:01;;;;;;;12.35;10.52;;;;;;;20.41;100.00;99340.78;5111933;28;20281;-68
2022/06/07 00:42:28;;;;;;;11.82;10.50;;;;;;;20.34;100.00;99345.59;5111928;28;20195;-68
2022/06/07 00:44:55;;;;;;;11.82;10.32;;;;;;;20.29;100.00;99347.75;5111859;28;20195;-59
2022/06/07 00:47:26;;;;;;;12.63;10.73;;;;;;;20.16;100.00;99325.84;5111891;28;20199;-59
2022/06/07 00:49:57;;;;;;;11.05;10.20;;;;;;;20.23;100.00;99351.66;5111788;28;20191;-61
2022/06/07 00:52:27;;;;;;;10.18;9.38;;;;;;;20.25;100.00;99347.13;5111967;28;20200;-61
2022/06/07 00:54:54;;;;;;;9.70;8.90;;;;;;;20.32;100.00;99347.50;5111650;28;20234;-68
2022/06/07 00:57:21;;;;;;;8.68;7.97;;;;;;;20.25;100.00;99325.19;5111767;28;20676;-61
2022/06/07 00:59:49;;;;;;;15.48;8.20;;;;;;;20.33;100.00;99345.72;5111571;28;20201;-69
2022/06/07 01:02:16;;;;;;;9.10;7.63;;;;;;;20.26;100.00;99342.69;5111639;28;20199;-68
2022/06/07 01:04:44;;;;;;;10.68;9.65;;;;;;;20.31;100.00;99346.66;5111350;28;20201;-69
2022/06/07 01:12:40;;;;;;;7.43;6.93;;;;;;;20.42;100.00;99337.19;5111559;28;20239;-69
2022/06/07 01:15:09;;;;;;;8.45;7.22;;;;;;;20.31;100.00;99336.13;5111302;27;20198;-67
2022/06/07 01:17:36;;;;;;;8.05;7.25;;;;;;;20.26;100.00;99334.78;5111255;28;20251;-66
2022/06/07 01:20:06;;;;;;;8.32;7.10;;;;;;;20.22;100.00;99334.16;5111219;28;20198;-59
2022/06/07 01:22:34;;;;;;;7.65;6.88;;;;;;;20.18;100.00;99332.69;5111177;28;20236;-66
2022/06/07 01:25:02;;;;;;;7.90;6.60;;;;;;;20.17;100.00;99332.81;5111159;28;20191;-59
2022/06/07 01:27:29;;;;;;;8.23;6.45;;;;;;;20.18;100.00;99323.94;5111123;28;20732;-67
2022/06/07 01:29:56;;;;;;;6.85;6.32;;;;;;;20.15;100.00;99335.53;5111031;28;20607;-66
2022/06/07 01:32:24;;;;;;;11.10;6.50;;;;;;;20.08;100.00;99330.84;5111145;28;20198;-67
2022/06/07 01:34:53;;;;;;;9.30;6.32;;;;;;;20.10;100.00;99329.75;5111175;28;20692;-59
2022/06/07 01:37:21;;;;;;;6.88;6.15;;;;;;;20.16;100.00;99339.03;5110994;28;20218;-59
2022/06/07 01:42:34;;;;;;;8.75;5.75;;;;;;;20.01;100.00;99340.94;5110056;28;20209;-67
2022/06/07 01:45:01;;;;;;;8.07;5.28;;;;;;;19.94;100.00;99340.53;5110388;28;20194;-68
2022/06/07 01:47:30;;;;;;;5.72;5.20;;;;;;;19.83;100.00;99315.91;5110549;28;20203;-60
2022/06/07 01:49:58;;;;;;;6.40;5.90;;;;;;;20.01;100.00;99346.22;5110512;28;20588;-69
2022/06/07 01:52:27;;;;;;;6.63;5.60;;;;;;;19.99;100.00;99347.25;5110654;28;20208;-60
2022/06/07 01:54:55;;;;;;;5.80;5.50;;;;;;;20.00;100.00;99346.31;5110537;28;20325;-70
2022/06/07 01:57:23;;;;;;;6.05;5.28;;;;;;;20.04;100.00;99351.28;5110752;28;20218;-60
2022/06/07 01:59:51;;;;;;;5.47;5.07;;;;;;;20.04;100.00;99343.38;5110924;28;20591;-60
2022/06/07 02:02:18;;;;;;;6.65;5.35;;;;;;;20.10;100.00;99342.91;5110772;28;20198;-59
2022/06/07 02:04:46;;;;;;;6.88;6.28;;;;;;;20.00;100.00;99344.53;5111013;28;20678;-59
2022/06/07 02:07:14;;;;;;;6.40;5.93;;;;;;;19.95;100.00;99346.66;5110801;28;20190;-69
2022/06/07 02:09:41;;;;;;;9.18;5.97;;;;;;;19.82;100.00;99365.09;5111095;28;20198;-59
2022/06/07 02:12:10;;;;;;;6.00;5.43;;;;;;;19.78;100.00;99353.06;5110629;28;20203;-60
2022/06/07 02:14:38;;;;;;;12.38;5.95;;;;;;;19.81;100.00;99352.03;5110789;28;20738;-69
2022/06/07 02:17:06;;;;;;;8.15;5.75;;;;;;;19.89;100.00;99360.22;5110584;28;20218;-69
2022/06/07 02:19:33;;;;;;;7.05;6.47;;;;;;;19.86;100.00;99363.09;5110485;28;20277;-60
2022/06/07 02:21:59;;;;;;;10.30;7.75;;;;;;;19.82;100.00;99359.00;5110435;28;20195;-59
2022/06/07 02:24:26;;;;;;;5.50;5.10;;;;;;;19.76;100.00;99354.97;5110890;28;20190;-59
2022/06/07 02:26:57;;;;;;;6.35;5.80;;;;;;;19.81;100.00;99355.50;5110522;28;20195;-59
2022/06/07 02:29:29;;;;;;;5.95;5.47;;;;;;;19.81;100.00;99365.19;5110520;28;20222;-59
2022/06/07 02:32:00;;;;;;;6.97;5.43;;;;;;;19.74;100.00;99371.84;5110484;28;20267;-60
2022/06/07 02:34:27;;;;;;;6.47;5.45;;;;;;;19.74;100.00;99366.59;5110311;28;20195;-58
2022/06/07 02:36:59;;;;;;;6.20;5.63;;;;;;;19.75;100.00;99369.09;5110564;28;20609;-59
2022/06/07 02:39:27;;;;;;;7.38;5.70;;;;;;;19.78;100.00;99374.16;5110588;28;20574;-59
2022/06/07 02:41:55;;;;;;;5.47;5.00;;;;;;;19.80;100.00;99377.53;5111638;28;20204;-59
2022/06/07 02:44:22;;;;;;;6.28;5.32;;;;;;;19.82;100.00;99380.91;5114348;27;20199;-59
2022/06/07 02:46:50;;;;;;;6.10;5.20;;;;;;;19.77;100.00;99377.72;5114320;28;20734;-59
2022/06/07 02:49:17;;;;;;;6.82;5.70;;;;;;;19.77;100.00;99367.19;5114584;28;20202;-59
2022/06/07 02:51:44;;;;;;;5.07;4.68;;;;;;;19.83;100.00;99376.47;5114221;28;20194;-60
2022/06/07 02:54:11;;;;;;;6.07;5.45;;;;;;;19.78;100.00;99382.03;5113927;28;20197;-59
2022/06/07 02:56:38;;;;;;;5.82;5.20;;;;;;;19.62;100.00;99356.88;5114096;28;20226;-68
2022/06/07 02:59:06;;;;;;;6.25;5.07;;;;;;;19.63;100.00;99390.16;5114088;28;20209;-68
2022/06/07 03:01:32;;;;;;;6.43;5.80;;;;;;;19.68;100.00;99388.91;5113859;28;20273;-67
2022/06/07 03:04:01;;;;;;;9.48;5.45;;;;;;;19.65;100.00;99391.72;5113903;28;20586;-68
2022/06/07 03:06:28;;;;;;;8.65;5.63;;;;;;;19.70;100.00;99388.78;5113789;28;20195;-58
2022/06/07 03:08:55;;;;;;;6.07;5.43;;;;;;;19.71;100.00;99396.59;5113695;28;20644;-68
2022/06/07 03:11:22;;;;;;;6.03;5.50;;;;;;;19.89;100.00;99391.84;5113578;28;20237;-69
2022/06/07 03:13:49;;;;;;;7.28;5.82;;;;;;;19.88;100.00;99377.81;5113664;28;20575;-59
2022/06/07 03:16:16;;;;;;;5.95;5.57;;;;;;;19.94;100.00;99384.47;5113742;28;20218;-68
2022/06/07 03:18:43;;;;;;;5.82;5.10;;;;;;;19.99;100.00;99382.34;5103089;28;20292;-70
2022/06/07 03:21:11;;;;;;;6.38;5.88;;;;;;;20.00;100.00;99388.47;5094522;28;20218;-61
2022/06/07 03:23:38;;;;;;;9.35;6.03;;;;;;;19.91;100.00;99363.59;5112613;28;20317;-70
2022/06/07 03:26:06;;;;;;;9.70;5.85;;;;;;;20.16;100.00;99394.38;5112480;28;20710;-70
2022/06/07 03:28:34;;;;;;;7.50;6.32;;;;;;;20.19;100.00;99397.63;5112505;28;20219;-61
2022/06/07 03:31:06;;;;;;;8.55;6.15;;;;;;;20.19;100.00;99399.44;5112388;28;20233;-61
2022/06/07 03:33:34;;;;;;;5.75;5.38;;;;;;;20.25;100.00;99397.19;5112699;28;20257;-70
2022/06/07 03:36:06;;;;;;;9.32;5.70;;;;;;;20.22;100.00;99399.19;5111543;27;20222;-61
2022/06/07 03:38:34;;;;;;;6.97;5.30;;;;;;;20.23;100.00;99398.25;5111071;28;20214;-70
2022/06/07 03:41:01;;;;;;;7.80;5.88;;;;;;;20.21;100.00;99400.97;5110822;28;20217;-61
2022/06/07 03:43:28;;;;;;;6.88;5.43;;;;;;;20.24;100.00;99397.28;5110687;28;20229;-62
2022/06/07 03:45:55;;;;;;;7.25;5.35;;;;;;;20.29;100.00;99388.13;5109090;28;20690;-60
2022/06/07 03:48:22;;;;;;;8.30;5.40;;;;;;;20.25;100.00;99385.81;5109664;28;20219;-61
2022/06/07 03:50:50;;;;;;;8.90;5.65;;;;;;;20.34;100.00;99400.97;5109744;28;20218;-61
2022/06/07 03:53:16;;;;;;;7.15;5.45;;;;;;;20.40;100.00;99402.38;5109382;28;20242;-68
2022/06/07 03:55:47;;;;;;;9.50;5.57;;;;;;;20.24;100.00;99387.59;5102871;27;20230;-69
2022/06/07 03:58:15;;;;;;;9.05;5.50;;;;;;;20.41;100.00;99404.91;5106561;28;20223;-70
2022/06/07 04:00:43;;;;;;;7.20;6.00;;;;;;;20.45;100.00;99394.97;5105835;28;20657;-69
2022/06/07 04:03:10;;;;;;;8.88;6.35;;;;;;;20.54;100.00;99392.50;5108125;28;20253;-69
2022/06/07 04:05:41;;;;;;;10.65;5.85;;;;;;;20.56;100.00;99400.31;5108907;28;20225;-68
2022/06/07 04:08:12;;;;;;;11.55;6.32;;;;;;;20.54;100.00;99412.78;5109280;28;20778;-69
2022/06/07 04:10:46;;;;;;;8.60;5.63;;;;;;;20.59;100.00;99408.00;5116992;27;20215;-68
2022/06/07 04:13:13;;;;;;;9.23;5.13;;;;;;;20.75;100.00;99410.41;5110831;27;20493;-68
2022/06/07 04:15:41;;;;;;;7.57;5.78;;;;;;;20.92;100.00;99402.94;5110840;28;20274;-68
2022/06/07 04:18:08;;;;;;;6.95;5.50;;;;;;;21.42;100.00;99406.31;5110810;28;20214;-68
2022/06/07 04:20:36;;;;;;;10.10;5.50;;;;;;;21.64;100.00;99411.66;5110999;28;20705;-69
2022/06/07 04:23:03;;;;;;;8.85;5.20;;;;;;;21.72;100.00;99416.34;5110829;28;20278;-70
2022/06/07 04:25:30;;;;;;;6.38;4.85;;;;;;;21.89;100.00;99423.84;5110910;28;20740;-69
2022/06/07 04:27:58;;;;;;;6.35;5.00;;;;;;;22.05;100.00;99423.50;5110716;28;20269;-69
2022/06/07 04:30:25;;;;;;;6.70;5.03;;;;;;;21.98;100.00;99423.16;5111080;28;20384;-58
2022/06/07 04:32:52;;;;;;;5.30;4.50;;;;;;;22.07;100.00;99421.59;5110899;28;20297;-57
2022/06/07 04:35:19;;;;;;;6.50;4.38;;;;;;;21.92;100.00;99420.09;5111013;28;20209;-58
2022/06/07 04:37:46;;;;;;;10.05;4.75;;;;;;;21.89;100.00;99426.47;5110937;28;20262;-58
2022/06/07 04:40:14;;;;;;;5.93;4.38;;;;;;;21.99;100.00;99422.19;5110969;28;20205;-65
2022/06/07 04:42:42;;;;;;;10.13;4.90;;;;;;;22.17;100.00;99419.06;5110416;28;20558;-65
2022/06/07 04:45:14;;;;;;;5.47;4.97;;;;;;;22.35;100.00;99436.13;5111483;28;20716;-64
2022/06/07 04:47:41;;;;;;;6.43;4.72;;;;;;;22.36;100.00;99440.47;5109543;28;20611;-66
2022/06/07 04:50:10;;;;;;;11.38;6.43;;;;;;;22.32;100.00;99434.59;5111479;28;20194;-64
2022/06/07 04:52:38;;;;;;;8.35;7.40;;;;;;;22.35;100.00;99438.78;5111511;28;20197;-65
2022/06/07 04:55:06;;;;;;;13.07;7.38;;;;;;;22.43;100.00;99434.59;5111239;28;20227;-65
2022/06/07 04:57:33;;;;;;;9.35;7.68;;;;;;;22.51;100.00;99435.78;5111553;28;20230;-58
2022/06/07 04:59:59;;;;;;;11.45;7.35;;;;;;;22.39;100.00;99441.06;5111293;28;20194;-58
2022/06/07 05:02:28;;;;;;;9.95;6.60;;;;;;;22.42;100.00;99448.78;5111421;28;20835;-58
2022/06/07 05:04:55;;;;;;;9.75;7.13;;;;;;;22.16;100.00;99444.66;5110905;28;20194;-58
2022/06/07 05:07:22;;;;;;;12.55;7.50;;;;;;;22.18;100.00;99439.25;5111784;28;20659;-64
2022/06/07 05:09:49;;;;;;;12.05;8.52;;;;;;;22.29;100.00;99444.56;5111360;28;20226;-64
2022/06/07 05:12:16;;;;;;;16.75;9.18;;;;;;;22.51;100.00;99451.66;5111285;28;20197;-64
2022/06/07 05:14:44;;;;;;;15.65;9.55;;;;;;;22.79;100.00;99461.78;5111202;28;20205;-64
2022/06/07 05:17:11;;;;;;;11.85;9.25;;;;;;;23.35;100.00;99461.63;5111424;28;20296;-67
2022/06/07 05:19:40;;;;;;;18.08;10.95;;;;;;;24.20;100.00;99460.56;5111288;28;20198;-63
2022/06/07 05:22:07;;;;;;;14.23;9.40;;;;;;;24.66;100.00;99463.72;5111222;28;20210;-66
2022/06/07 05:24:35;;;;;;;11.60;9.85;;;;;;;24.84;100.00;99462.91;5111121;28;20303;-65
2022/06/07 05:27:06;;;;;;;10.13;8.82;;;;;;;25.19;100.00;99469.59;5111141;28;20198;-65
2022/06/07 05:29:38;;;;;;;10.35;9.02;;;;;;;25.93;98.80;99457.44;5111173;28;20198;-65
2022/06/07 05:32:06;;;;;;;15.98;10.23;;;;;;;26.94;95.37;99475.31;5111021;28;20281;-65
2022/06/07 05:34:33;;;;;;;15.90;9.23;;;;;;;28.06;88.08;99455.19;5111190;28;20279;-66
2022/06/07 05:37:01;;;;;;;12.40;8.55;;;;;;;28.61;87.57;99462.84;5110889;28;20218;-67
2022/06/07 05:39:30;;;;;;;16.67;9.13;;;;;;;27.64;88.80;99472.88;5111144;28;20264;-67
2022/06/07 05:41:58;;;;;;;12.02;9.30;;;;;;;26.98;92.91;99473.16;5110931;28;20289;-67
2022/06/07 05:44:27;;;;;;;16.35;8.52;;;;;;;26.59;92.65;99473.34;5111277;28;20682;-65
2022/06/07 05:46:54;;;;;;;18.50;9.20;;;;;;;26.01;95.73;99462.88;5110866;28;20290;-58
2022/06/07 05:49:21;;;;;;;25.30;12.90;;;;;;;25.64;99.19;99460.13;5110794;28;20281;-65
2022/06/07 05:51:48;;;;;;;14.07;9.95;;;;;;;25.88;97.58;99459.69;5110876;28;20206;-64
2022/06/07 05:54:18;;;;;;;19.33;10.00;;;;;;;26.30;95.39;99460.16;5110395;28;20201;-63
2022/06/07 05:56:45;;;;;;;13.60;8.93;;;;;;;26.75;93.35;99454.06;5110590;28;20195;-64
2022/06/07 05:59:12;;;;;;;20.02;11.60;;;;;;;28.22;87.26;99459.00;5110949;28;20276;-65
2022/06/07 06:01:40;;;;;;;13.77;8.07;;;;;;;29.91;79.95;99457.78;5110695;28;20256;-67
2022/06/07 06:04:08;;;;;;;8.57;7.47;;;;;;;31.42;73.04;99460.22;5110542;28;20285;-65
2022/06/07 06:06:36;;;;;;;15.98;7.75;;;;;;;32.47;64.47;99461.13;5110868;28;20585;-59
2022/06/07 06:11:50;;;;;;;11.57;6.93;;;;;;;31.65;65.14;99460.25;5110713;28;20197;-59
2022/06/07 06:14:17;;;;;;;12.82;7.97;;;;;;;31.01;66.64;99449.75;5110645;28;20207;-59
2022/06/07 06:16:44;;;;;;;9.02;7.28;;;;;;;31.23;66.58;99444.63;5111747;28;20238;-60
2022/06/07 06:19:11;;;;;;;14.88;9.60;;;;;;;32.26;63.31;99455.66;5114743;28;20194;-66
2022/06/07 06:21:40;;;;;;;8.98;7.43;;;;;;;32.55;60.54;99457.50;5114536;28;20236;-59
2022/06/07 06:24:09;;;;;;;9.40;7.93;;;;;;;32.59;58.67;99453.44;5114654;28;20285;-60
2022/06/07 06:26:37;;;;;;;7.50;6.75;;;;;;;33.21;57.86;99452.94;5114807;28;20238;-58
2022/06/07 06:29:08;;;;;;;9.80;8.45;;;;;;;32.55;57.06;99442.22;5114723;28;20674;-66
2022/06/07 06:31:35;;;;;;;10.75;6.68;;;;;;;32.65;56.85;99431.16;5114548;28;20206;-60
2022/06/07 06:34:03;;;;;;;8.07;5.03;;;;;;;31.63;51.27;99448.81;5114278;28;20683;-58
2022/06/07 06:36:30;;;;;;;7.13;4.18;;;;;;;31.58;52.19;99446.69;5114822;28;20229;-58
2022/06/07 06:38:58;;;;;;;7.05;5.15;;;;;;;30.81;55.58;99448.53;5114375;28;20227;-67
2022/06/07 06:41:27;;;;;;;6.50;5.65;;;;;;;30.42;55.34;99442.28;5114453;28;20693;-58
2022/06/07 06:43:55;;;;;;;8.85;5.72;;;;;;;29.80;53.49;99447.41;5114560;28;20195;-66
2022/06/07 06:46:26;;;;;;;6.72;4.10;;;;;;;30.28;52.45;99444.66;5114128;28;20230;-67
2022/06/07 06:48:53;;;;;;;6.72;6.10;;;;;;;30.48;53.15;99452.28;5114095;28;20209;-66
2022/06/07 06:51:24;;;;;;;8.13;4.20;;;;;;;30.72;51.52;99451.38;5114398;28;20197;-67
2022/06/07 06:53:51;;;;;;;8.60;4.80;;;;;;;31.44;50.72;99452.84;5114073;28;20194;-59
2022/06/07 06:56:21;;;;;;;10.02;6.78;;;;;;;31.80;48.30;99454.94;5113822;28;20760;-58
2022/06/07 06:58:49;;;;;;;6.68;5.97;;;;;;;31.97;48.37;99451.06;5113907;28;20210;-67
2022/06/07 07:01:19;;;;;;;14.32;5.38;;;;;;;31.88;49.33;99454.84;5114403;28;20591;-67
2022/06/07 07:03:47;;;;;;;7.30;4.03;;;;;;;31.98;48.69;99450.03;5113828;28;20234;-67
2022/06/07 07:06:16;;;;;;;8.52;4.78;;;;;;;31.75;48.80;99445.56;5114021;28;20694;-59
2022/06/07 07:08:44;;;;;;;7.35;5.18;;;;;;;31.54;48.05;99410.50;5113927;27;20283;-60
2022/06/07 07:11:15;;;;;;;6.03;5.05;;;;;;;31.18;48.38;99430.88;5113659;28;20278;-58
2022/06/07 07:13:42;;;;;;;7.28;5.50;;;;;;;31.19;50.28;99437.91;5113525;28;20606;-59
2022/06/07 07:16:11;;;;;;;6.32;4.75;;;;;;;31.72;49.02;99432.50;5113558;28;20202;-60
2022/06/07 07:18:39;;;;;;;6.95;5.10;;;;;;;32.04;46.44;99434.06;5113522;27;20225;-58
2022/06/07 07:21:09;;;;;;;5.50;4.20;;;;;;;32.28;44.53;99445.59;5113521;28;20277;-58
2022/06/07 07:23:37;;;;;;;6.85;4.55;;;;;;;32.42;44.93;99426.75;5113565;28;20202;-58
2022/06/07 07:26:06;;;;;;;6.55;4.57;;;;;;;32.98;44.28;99437.81;5113496;28;20649;-59
2022/06/07 07:28:34;;;;;;;5.90;4.78;;;;;;;32.83;45.12;99422.75;5113033;28;20194;-59
2022/06/07 07:31:01;;;;;;;8.60;4.65;;;;;;;32.79;44.17;99430.34;5113727;28;20238;-59
2022/06/07 07:33:28;;;;;;;5.80;5.18;;;;;;;32.50;45.89;99433.06;5113443;28;20195;-58
2022/06/07 07:35:56;;;;;;;10.32;5.10;;;;;;;32.64;45.77;99424.13;5113230;28;20199;-59
2022/06/07 07:38:25;;;;;;;5.93;5.00;;;;;;;33.22;45.24;99428.53;5113192;28;20223;-58
2022/06/07 07:40:52;;;;;;;8.75;5.22;;;;;;;33.25;44.49;99427.38;5113021;28;20203;-59
2022/06/07 07:43:19;;;;;;;6.60;4.70;;;;;;;33.21;42.43;99426.03;5113154;28;20286;-66
2022/06/07 07:45:46;;;;;;;6.47;4.55;;;;;;;32.82;43.81;99421.91;5113170;28;20668;-66
2022/06/07 07:48:14;;;;;;;5.90;5.22;;;;;;;32.77;43.81;99417.09;5112863;28;20277;-67
2022/06/07 07:50:41;;;;;;;6.03;5.53;;;;;;;32.68;44.07;99420.06;5112834;28;20226;-66
2022/06/07 07:53:08;;;;;;;9.18;5.40;;;;;;;32.40;44.53;99401.91;5112758;28;20681;-66
2022/06/07 07:55:42;;;;;;;5.78;4.78;;;;;;;32.66;43.96;99401.41;5112640;28;20245;-67
2022/06/07 07:58:09;;;;;;;3.38;2.80;;;;;;;32.46;41.96;99409.25;5112669;28;20218;-67
2022/06/07 08:00:36;;;;;;;3.03;2.92;;;;;;;32.11;41.48;99412.66;5112970;28;20292;-66
2022/06/07 08:03:03;;;;;;;6.22;3.85;;;;;;;31.94;42.16;99405.81;5112868;28;20289;-67
2022/06/07 08:05:31;;;;;;;3.92;3.45;;;;;;;32.24;42.05;99361.00;5112727;28;20191;-65
2022/06/07 08:07:58;;;;;;;3.33;3.03;;;;;;;32.37;39.58;99399.63;5112577;28;20194;-66
2022/06/07 08:10:25;;;;;;;3.63;2.80;;;;;;;32.88;38.75;99401.50;5112673;28;20205;-65
2022/06/07 08:12:54;;;;;;;2.80;2.70;;;;;;;33.00;38.36;99394.59;5112629;28;20194;-65
2022/06/07 08:15:23;;;;;;;4.53;2.63;;;;;;;33.26;38.14;99408.34;5112630;28;20689;-66
2022/06/07 08:17:51;;;;;;;2.95;2.65;;;;;;;33.64;36.76;99397.25;5112418;28;20222;-66
2022/06/07 08:20:19;;;;;;;2.50;2.25;;;;;;;33.78;36.35;99394.50;5112341;28;20194;-66
2022/06/07 08:22:47;;;;;;;2.58;2.20;;;;;;;34.19;35.84;99396.44;5112340;28;20235;-65
2022/06/07 08:25:14;;;;;;;3.80;2.70;;;;;;;34.67;34.97;99389.22;5112316;28;20198;-68
2022/06/07 08:27:42;;;;;;;2.55;2.42;;;;;;;34.36;34.97;99389.72;5112434;28;20741;-68
2022/06/07 08:30:11;;;;;;;3.13;2.75;;;;;;;34.62;35.80;99386.31;5112438;28;20198;-66
2022/06/07 08:32:38;;;;;;;2.83;2.42;;;;;;;34.93;35.36;99385.78;5112395;28;20617;-58
2022/06/07 08:37:50;;;;;;;3.80;2.50;;;;;;;34.10;35.55;99379.59;5112112;28;20214;-59
2022/06/07 08:40:26;;;;;;;2.83;2.63;;;;;;;33.62;36.71;99370.56;5111386;28;20209;-67
2022/06/07 08:42:56;;;;;;;3.10;2.78;;;;;;;33.02;37.88;99366.50;5111955;28;20194;-64
2022/06/07 08:45:29;;;;;;;2.40;2.30;;;;;;;31.72;38.84;99378.81;5111927;28;20220;-67
2022/06/07 08:47:59;;;;;;;2.15;2.05;;;;;;;31.05;40.81;99370.63;5112116;28;20558;-66
2022/06/07 08:50:30;;;;;;;2.60;2.40;;;;;;;30.32;41.79;99362.97;5111792;28;20190;-66
2022/06/07 08:53:02;;;;;;;2.67;2.58;;;;;;;30.11;42.63;99356.56;5112226;28;20576;-66
2022/06/07 08:55:33;;;;;;;4.25;2.45;;;;;;;30.01;43.29;99355.91;5111504;28;20262;-66
2022/06/07 08:58:06;;;;;;;2.40;2.33;;;;;;;30.22;42.26;99353.50;5111551;28;20218;-66
2022/06/07 09:00:36;;;;;;;2.85;2.55;;;;;;;30.04;42.92;99351.03;5111849;28;20626;-65
2022/06/07 09:03:43;;;;;;;2.70;2.60;;;;;;;30.54;42.81;99350.69;5112023;28;20692;-66
2022/06/07 09:06:18;;;;;;;2.78;2.63;;;;;;;31.04;41.09;99354.69;5100850;28;20216;-59
2022/06/07 09:08:49;;;;;;;2.92;2.75;;;;;;;31.09;41.25;99330.09;5111532;28;20237;-60
2022/06/07 09:14:25;;;;;;;2.60;2.50;;;;;;;31.67;41.98;99348.19;5048381;28;20200;-67
2022/06/07 09:16:55;;;;;;;5.50;2.78;;;;;;;31.32;41.40;99331.72;5047602;28;20200;-59
2022/06/07 09:19:25;;;;;;;2.95;2.85;;;;;;;31.33;42.51;99330.72;5068815;28;20223;-66
2022/06/07 09:21:56;;;;;;;3.60;2.60;;;;;;;31.68;40.78;99337.28;5091201;28;20223;-64
2022/06/07 09:24:31;;;;;;;4.30;2.60;;;;;;;31.91;40.93;99333.69;5090838;28;20191;-58
2022/06/07 09:27:07;;;;;;;5.07;2.63;;;;;;;31.70;40.94;99335.25;5090536;28;20202;-66
2022/06/07 09:29:39;;;;;;;3.08;2.63;;;;;;;31.82;40.48;99330.25;5090762;28;20277;-66
2022/06/07 09:32:12;;;;;;;2.88;2.58;;;;;;;31.84;40.87;99324.69;5090664;28;20199;-66
2022/06/07 09:34:50;;;;;;;2.78;2.67;;;;;;;31.84;40.87;99322.00;5090979;28;20678;-65
2022/06/07 09:37:23;;;;;;;3.53;2.60;;;;;;;31.68;40.60;99318.50;5090542;28;20706;-66
2022/06/07 09:40:00;;;;;;;3.28;3.00;;;;;;;31.98;40.23;99315.78;5090494;28;20223;-67
2022/06/07 09:42:29;;;;;;;4.35;2.70;;;;;;;32.05;40.48;99316.75;5090648;28;20198;-66
2022/06/07 09:45:00;;;;;;;2.42;2.28;;;;;;;31.80;39.52;99318.03;5090469;28;20195;-67
2022/06/07 09:47:30;;;;;;;3.38;2.80;;;;;;;31.67;39.37;99313.31;5090591;28;20286;-66
2022/06/07 09:49:59;;;;;;;3.00;2.58;;;;;;;31.58;39.14;99309.84;5090163;28;20195;-65
2022/06/07 09:52:31;;;;;;;3.20;2.90;;;;;;;31.26;39.80;99302.97;5090255;28;20255;-65
2022/06/07 09:55:00;;;;;;;2.80;2.70;;;;;;;31.62;40.28;99292.34;5090112;28;20227;-66
2022/06/07 09:57:34;;;;;;;4.03;2.97;;;;;;;31.65;38.93;99305.44;5090352;28;20274;-64
2022/06/07 10:00:19;;;;;;;2.90;2.78;;;;;;;31.44;39.66;99299.94;5090201;28;20325;-65
2022/06/07 10:03:17;;;;;;;2.72;2.63;;;;;;;31.62;40.24;99286.97;5090634;28;20198;-67
2022/06/07 10:05:51;;;;;;;2.53;2.40;;;;;;;31.28;40.21;99270.56;5109510;28;20207;-67
2022/06/07 10:08:34;;;;;;;3.90;3.05;;;;;;;31.30;40.65;99271.22;5110274;28;20187;-66
2022/06/07 10:11:05;;;;;;;2.97;2.70;;;;;;;31.37;40.92;99280.22;5110496;28;20334;-59
2022/06/07 10:13:49;;;;;;;2.70;2.60;;;;;;;31.52;40.21;99275.69;5110558;28;20285;-59
2022/06/07 10:16:27;;;;;;;2.67;2.50;;;;;;;31.47;39.55;99253.97;5110649;28;20225;-58
2022/06/07 10:19:10;;;;;;;2.88;2.60;;;;;;;31.14;41.01;99245.44;5110430;28;20218;-59
2022/06/07 10:22:08;;;;;;;3.50;3.20;;;;;;;30.71;40.21;99256.78;5110522;28;20234;-59
2022/06/07 10:24:43;;;;;;;2.53;2.42;;;;;;;30.52;40.96;99258.09;5110318;28;20233;-58
2022/06/07 10:27:18;;;;;;;2.92;2.72;;;;;;;30.35;40.34;99245.81;5105457;28;20281;-58
2022/06/07 10:30:15;;;;;;;2.75;2.50;;;;;;;30.21;41.35;99245.56;5095855;28;20282;-58
2022/06/07 10:32:52;;;;;;;4.55;4.25;;;;;;;30.32;42.27;99239.81;5090201;28;20659;-58
2022/06/07 10:35:28;;;;;;;3.10;2.90;;;;;;;29.91;42.47;99236.47;5090113;28;20206;-57
2022/06/07 10:38:14;;;;;;;4.15;3.50;;;;;;;29.90;43.07;99224.13;5089959;28;20195;-58
2022/06/07 10:40:52;;;;;;;3.10;2.90;;;;;;;29.93;42.17;99225.59;5103545;28;20233;-58
2022/06/07 10:43:24;;;;;;;3.03;2.92;;;;;;;30.07;42.35;99234.75;5108785;28;20190;-58
2022/06/07 10:45:57;;;;;;;3.00;2.80;;;;;;;30.39;40.87;99221.16;5108834;28;20226;-58
2022/06/07 10:48:32;;;;;;;4.97;2.67;;;;;;;30.35;41.46;99194.94;5106503;28;20264;-58
2022/06/07 10:52:20;;;;;;;4.68;3.28;;;;;;;30.86;40.85;99217.50;5107597;28;20186;-58
2022/06/07 10:53:56;;;;;;;3.72;3.20;;;;;;;30.50;41.08;99222.59;5108223;28;20213;-57
2022/06/07 10:56:28;;;;;;;3.10;2.90;;;;;;;30.50;41.76;99218.06;5108616;28;20301;-57
2022/06/07 10:58:59;;;;;;;5.80;2.92;;;;;;;30.74;40.29;99218.94;5109770;28;20218;-57
2022/06/07 11:01:32;;;;;;;3.15;2.95;;;;;;;30.69;39.83;99214.13;5110275;28;20712;-58
2022/06/07 11:04:11;;;;;;;4.30;2.70;;;;;;;30.68;39.28;99204.44;5112840;28;20255;-57
2022/06/07 11:09:37;;;;;;;3.28;2.60;;;;;;;30.56;40.24;99195.97;5110208;28;20324;-58
2022/06/07 11:12:12;;;;;;;3.00;2.80;;;;;;;30.56;40.75;99189.78;5095754;28;20198;-58
2022/06/07 11:14:51;;;;;;;3.10;2.97;;;;;;;30.26;39.99;99188.78;5110554;28;20754;-57
2022/06/07 11:17:33;;;;;;;4.75;3.08;;;;;;;30.10;40.64;99179.03;5110866;28;20194;-58
2022/06/07 11:20:03;;;;;;;2.80;2.70;;;;;;;29.95;40.48;99180.75;5110495;28;20267;-58
2022/06/07 11:22:37;;;;;;;3.53;3.22;;;;;;;29.71;41.65;99171.00;5112247;28;20327;-58
2022/06/07 11:25:27;;;;;;;3.70;3.40;;;;;;;29.48;42.06;99180.81;5112199;28;20243;-57
2022/06/07 11:27:57;;;;;;;3.22;3.00;;;;;;;29.42;42.10;99163.63;5109392;28;20194;-58
2022/06/07 11:30:40;;;;;;;4.97;4.00;;;;;;;29.09;43.42;99167.38;5112264;28;20222;-58
2022/06/07 11:33:36;;;;;;;3.40;2.92;;;;;;;28.98;43.14;99155.22;5111184;28;20195;-65
2022/06/07 11:36:28;;;;;;;3.13;2.80;;;;;;;29.08;43.38;99152.34;5110679;28;20681;-66
2022/06/07 11:39:04;;;;;;;3.55;2.83;;;;;;;28.79;42.54;99148.38;5110144;28;20210;-66
2022/06/07 11:41:46;;;;;;;3.53;3.20;;;;;;;29.05;42.84;99155.34;5112162;28;20200;-66
2022/06/07 11:45:04;;;;;;;3.13;2.80;;;;;;;29.43;41.77;99153.78;5111052;28;20243;-65
2022/06/07 11:47:36;;;;;;;2.90;2.80;;;;;;;29.26;41.39;99132.41;5110720;28;20250;-66
2022/06/07 11:50:27;;;;;;;4.78;3.00;;;;;;;29.77;40.94;99146.25;5112477;28;20191;-65
2022/06/07 11:53:01;;;;;;;4.07;2.80;;;;;;;30.29;40.13;99140.25;5110872;28;20737;-58
2022/06/07 11:55:41;;;;;;;4.05;3.65;;;;;;;30.54;40.70;99141.75;5109915;28;20222;-58
2022/06/07 11:58:09;;;;;;;3.97;3.10;;;;;;;30.39;40.99;99135.47;5110059;28;20273;-58
2022/06/07 12:00:49;;;;;;;2.80;2.70;;;;;;;30.37;41.57;99131.31;5112175;28;20219;-58